sensor_id;sensor_type;location;lat;lon;timestamp;P1;durP1;ratioP1;P2;durP2;ratioP2
5869;SDS011;2961;47.702;9.410;2023-11-19T00:02:24;2.83;;;2.63;;
5869;SDS011;2961;47.702;9.410;2023-11-19T00:04:51;2.43;;;2.30;;
5869;SDS011;2961;47.702;9.410;2023-11-19T00:07:19;2.40;;;2.30;;
5869;SDS011;2961;47.702;9.410;2023-11-19T00:09:46;2.37;;;2.27;;
5869;SDS011;2961;47.702;9.410;2023-11-19T00:12:12;2.13;;;2.03;;
5869;SDS011;2961;47.702;9.410;2023-11-19T00:14:39;2.73;;;2.53;;
5869;SDS011;2961;47.702;9.410;2023-11-19T00:17:07;2.20;;;2.10;;
5869;SDS011;2961;47.702;9.410;2023-11-19T00:19:34;2.90;;;2.60;;
5869;SDS011;2961;47.702;9.410;2023-11-19T00:22:01;2.80;;;2.60;;
5869;SDS011;2961;47.702;9.410;2023-11-19T00:24:28;2.33;;;2.23;;
5869;SDS011;2961;47.702;9.410;2023-11-19T00:26:56;3.23;;;3.03;;
5869;SDS011;2961;47.702;9.410;2023-11-19T00:29:23;5.27;;;2.57;;
5869;SDS011;2961;47.702;9.410;2023-11-19T00:31:50;5.77;;;2.60;;
5869;SDS011;2961;47.702;9.410;2023-11-19T00:34:18;3.10;;;2.90;;
5869;SDS011;2961;47.702;9.410;2023-11-19T00:36:47;3.70;;;2.70;;
5869;SDS011;2961;47.702;9.410;2023-11-19T00:39:14;3.60;;;2.80;;
5869;SDS011;2961;47.702;9.410;2023-11-19T00:41:41;2.50;;;2.40;;
5869;SDS011;2961;47.702;9.410;2023-11-19T00:44:08;2.97;;;2.77;;
5869;SDS011;2961;47.702;9.410;2023-11-19T00:46:35;4.00;;;2.90;;
5869;SDS011;2961;47.702;9.410;2023-11-19T00:49:01;2.67;;;2.57;;
5869;SDS011;2961;47.702;9.410;2023-11-19T00:51:30;2.77;;;2.57;;
5869;SDS011;2961;47.702;9.410;2023-11-19T00:53:57;3.23;;;2.93;;
5869;SDS011;2961;47.702;9.410;2023-11-19T00:56:24;2.90;;;2.70;;
5869;SDS011;2961;47.702;9.410;2023-11-19T00:58:51;2.53;;;2.37;;
5869;SDS011;2961;47.702;9.410;2023-11-19T01:01:17;3.30;;;3.10;;
5869;SDS011;2961;47.702;9.410;2023-11-19T01:03:44;4.30;;;3.13;;
5869;SDS011;2961;47.702;9.410;2023-11-19T01:06:11;2.57;;;2.47;;
5869;SDS011;2961;47.702;9.410;2023-11-19T01:08:40;2.93;;;2.83;;
5869;SDS011;2961;47.702;9.410;2023-11-19T01:11:08;2.57;;;2.47;;
5869;SDS011;2961;47.702;9.410;2023-11-19T01:13:35;2.87;;;2.67;;
5869;SDS011;2961;47.702;9.410;2023-11-19T01:16:02;3.33;;;2.63;;
5869;SDS011;2961;47.702;9.410;2023-11-19T01:18:29;5.20;;;3.40;;
5869;SDS011;2961;47.702;9.410;2023-11-19T01:20:56;3.13;;;2.93;;
5869;SDS011;2961;47.702;9.410;2023-11-19T01:23:23;3.53;;;3.13;;
5869;SDS011;2961;47.702;9.410;2023-11-19T01:25:51;3.20;;;3.00;;
5869;SDS011;2961;47.702;9.410;2023-11-19T01:28:18;2.77;;;2.57;;
5869;SDS011;2961;47.702;9.410;2023-11-19T01:30:45;3.60;;;3.30;;
5869;SDS011;2961;47.702;9.410;2023-11-19T01:33:11;7.93;;;3.30;;
5869;SDS011;2961;47.702;9.410;2023-11-19T01:35:38;2.97;;;2.77;;
5869;SDS011;2961;47.702;9.410;2023-11-19T01:38:06;3.57;;;3.27;;
5869;SDS011;2961;47.702;9.410;2023-11-19T01:40:33;2.80;;;2.60;;
5869;SDS011;2961;47.702;9.410;2023-11-19T01:43:03;3.73;;;3.10;;
5869;SDS011;2961;47.702;9.410;2023-11-19T01:45:30;3.57;;;2.83;;
5869;SDS011;2961;47.702;9.410;2023-11-19T01:47:59;4.83;;;3.27;;
5869;SDS011;2961;47.702;9.410;2023-11-19T01:50:28;5.07;;;3.93;;
5869;SDS011;2961;47.702;9.410;2023-11-19T01:52:56;3.40;;;3.20;;
5869;SDS011;2961;47.702;9.410;2023-11-19T01:55:23;4.97;;;4.50;;
5869;SDS011;2961;47.702;9.410;2023-11-19T01:57:51;3.70;;;3.40;;
5869;SDS011;2961;47.702;9.410;2023-11-19T02:00:22;4.47;;;4.00;;
5869;SDS011;2961;47.702;9.410;2023-11-19T02:02:49;4.67;;;4.27;;
5869;SDS011;2961;47.702;9.410;2023-11-19T02:05:19;4.40;;;4.00;;
5869;SDS011;2961;47.702;9.410;2023-11-19T02:07:46;5.13;;;4.23;;
5869;SDS011;2961;47.702;9.410;2023-11-19T02:10:15;4.07;;;3.77;;
5869;SDS011;2961;47.702;9.410;2023-11-19T02:12:44;7.23;;;4.30;;
5869;SDS011;2961;47.702;9.410;2023-11-19T02:15:11;4.93;;;4.43;;
5869;SDS011;2961;47.702;9.410;2023-11-19T02:17:40;6.40;;;4.43;;
5869;SDS011;2961;47.702;9.410;2023-11-19T02:20:08;4.57;;;4.17;;
5869;SDS011;2961;47.702;9.410;2023-11-19T02:22:37;4.80;;;4.30;;
5869;SDS011;2961;47.702;9.410;2023-11-19T02:25:04;5.57;;;4.47;;
5869;SDS011;2961;47.702;9.410;2023-11-19T02:30:23;3.40;;;3.10;;
5869;SDS011;2961;47.702;9.410;2023-11-19T02:32:51;4.53;;;4.23;;
5869;SDS011;2961;47.702;9.410;2023-11-19T02:35:18;4.43;;;4.03;;
5869;SDS011;2961;47.702;9.410;2023-11-19T02:37:46;4.93;;;4.37;;
5869;SDS011;2961;47.702;9.410;2023-11-19T02:40:13;4.43;;;4.00;;
5869;SDS011;2961;47.702;9.410;2023-11-19T02:42:40;5.50;;;4.50;;
5869;SDS011;2961;47.702;9.410;2023-11-19T02:45:09;6.37;;;4.60;;
5869;SDS011;2961;47.702;9.410;2023-11-19T02:47:39;4.73;;;4.20;;
5869;SDS011;2961;47.702;9.410;2023-11-19T02:50:07;9.00;;;4.30;;
5869;SDS011;2961;47.702;9.410;2023-11-19T02:52:39;4.57;;;4.17;;
5869;SDS011;2961;47.702;9.410;2023-11-19T02:55:06;6.03;;;4.53;;
5869;SDS011;2961;47.702;9.410;2023-11-19T02:57:37;5.53;;;5.00;;
5869;SDS011;2961;47.702;9.410;2023-11-19T03:00:12;7.00;;;4.60;;
5869;SDS011;2961;47.702;9.410;2023-11-19T03:02:40;3.87;;;3.53;;
5869;SDS011;2961;47.702;9.410;2023-11-19T03:05:11;5.10;;;4.33;;
5869;SDS011;2961;47.702;9.410;2023-11-19T03:07:40;6.83;;;4.77;;
5869;SDS011;2961;47.702;9.410;2023-11-19T03:10:09;5.27;;;4.20;;
5869;SDS011;2961;47.702;9.410;2023-11-19T03:12:38;7.80;;;4.80;;
5869;SDS011;2961;47.702;9.410;2023-11-19T03:15:05;7.33;;;4.37;;
5869;SDS011;2961;47.702;9.410;2023-11-19T03:17:36;6.07;;;4.80;;
5869;SDS011;2961;47.702;9.410;2023-11-19T03:20:05;5.97;;;5.13;;
5869;SDS011;2961;47.702;9.410;2023-11-19T03:22:34;5.37;;;4.87;;
5869;SDS011;2961;47.702;9.410;2023-11-19T03:25:03;4.80;;;4.40;;
5869;SDS011;2961;47.702;9.410;2023-11-19T03:27:33;5.00;;;4.60;;
5869;SDS011;2961;47.702;9.410;2023-11-19T03:30:00;5.20;;;4.80;;
5869;SDS011;2961;47.702;9.410;2023-11-19T03:32:29;8.23;;;5.57;;
5869;SDS011;2961;47.702;9.410;2023-11-19T03:34:58;6.07;;;4.43;;
5869;SDS011;2961;47.702;9.410;2023-11-19T03:37:25;4.63;;;4.27;;
5869;SDS011;2961;47.702;9.410;2023-11-19T03:39:53;4.40;;;4.10;;
5869;SDS011;2961;47.702;9.410;2023-11-19T03:42:20;5.63;;;5.10;;
5869;SDS011;2961;47.702;9.410;2023-11-19T03:44:47;7.60;;;5.23;;
5869;SDS011;2961;47.702;9.410;2023-11-19T03:47:15;7.77;;;5.33;;
5869;SDS011;2961;47.702;9.410;2023-11-19T03:49:42;6.00;;;5.40;;
5869;SDS011;2961;47.702;9.410;2023-11-19T03:52:10;7.30;;;6.00;;
5869;SDS011;2961;47.702;9.410;2023-11-19T03:54:37;5.23;;;4.73;;
5869;SDS011;2961;47.702;9.410;2023-11-19T03:57:04;6.33;;;5.73;;
5869;SDS011;2961;47.702;9.410;2023-11-19T03:59:31;7.57;;;6.13;;
5869;SDS011;2961;47.702;9.410;2023-11-19T04:01:58;6.50;;;5.47;;
5869;SDS011;2961;47.702;9.410;2023-11-19T04:04:25;5.27;;;4.80;;
5869;SDS011;2961;47.702;9.410;2023-11-19T04:06:53;6.83;;;5.10;;
5869;SDS011;2961;47.702;9.410;2023-11-19T04:09:21;8.43;;;5.80;;
5869;SDS011;2961;47.702;9.410;2023-11-19T04:11:48;6.23;;;4.90;;
5869;SDS011;2961;47.702;9.410;2023-11-19T04:14:15;6.73;;;5.60;;
5869;SDS011;2961;47.702;9.410;2023-11-19T04:16:43;7.37;;;5.03;;
5869;SDS011;2961;47.702;9.410;2023-11-19T04:19:10;8.67;;;5.60;;
5869;SDS011;2961;47.702;9.410;2023-11-19T04:21:37;5.77;;;5.27;;
5869;SDS011;2961;47.702;9.410;2023-11-19T04:24:07;5.50;;;5.00;;
5869;SDS011;2961;47.702;9.410;2023-11-19T04:26:35;8.97;;;5.37;;
5869;SDS011;2961;47.702;9.410;2023-11-19T04:29:02;6.00;;;5.23;;
5869;SDS011;2961;47.702;9.410;2023-11-19T04:31:29;6.03;;;5.43;;
5869;SDS011;2961;47.702;9.410;2023-11-19T04:33:57;5.47;;;4.90;;
5869;SDS011;2961;47.702;9.410;2023-11-19T04:36:25;6.33;;;5.00;;
5869;SDS011;2961;47.702;9.410;2023-11-19T04:38:52;5.20;;;4.70;;
5869;SDS011;2961;47.702;9.410;2023-11-19T04:41:19;8.03;;;5.37;;
5869;SDS011;2961;47.702;9.410;2023-11-19T04:43:47;8.83;;;5.70;;
5869;SDS011;2961;47.702;9.410;2023-11-19T04:46:14;6.13;;;4.60;;
5869;SDS011;2961;47.702;9.410;2023-11-19T04:48:41;6.03;;;5.37;;
5869;SDS011;2961;47.702;9.410;2023-11-19T04:51:07;8.73;;;5.37;;
5869;SDS011;2961;47.702;9.410;2023-11-19T04:53:35;6.40;;;5.53;;
5869;SDS011;2961;47.702;9.410;2023-11-19T04:56:07;5.77;;;5.27;;
5869;SDS011;2961;47.702;9.410;2023-11-19T04:58:34;7.17;;;5.20;;
5869;SDS011;2961;47.702;9.410;2023-11-19T05:01:03;7.07;;;5.47;;
5869;SDS011;2961;47.702;9.410;2023-11-19T05:03:31;8.90;;;5.20;;
5869;SDS011;2961;47.702;9.410;2023-11-19T05:05:58;4.70;;;4.23;;
5869;SDS011;2961;47.702;9.410;2023-11-19T05:08:25;7.30;;;6.37;;
5869;SDS011;2961;47.702;9.410;2023-11-19T05:10:51;8.77;;;4.80;;
5869;SDS011;2961;47.702;9.410;2023-11-19T05:13:18;7.87;;;5.47;;
5869;SDS011;2961;47.702;9.410;2023-11-19T05:15:45;5.37;;;4.80;;
5869;SDS011;2961;47.702;9.410;2023-11-19T05:18:13;6.27;;;5.60;;
5869;SDS011;2961;47.702;9.410;2023-11-19T05:20:40;6.23;;;5.57;;
5869;SDS011;2961;47.702;9.410;2023-11-19T05:23:06;7.07;;;6.30;;
5869;SDS011;2961;47.702;9.410;2023-11-19T05:25:33;6.30;;;5.23;;
5869;SDS011;2961;47.702;9.410;2023-11-19T05:28:00;10.97;;;5.83;;
5869;SDS011;2961;47.702;9.410;2023-11-19T05:30:27;5.47;;;4.97;;
5869;SDS011;2961;47.702;9.410;2023-11-19T05:32:54;6.13;;;5.30;;
5869;SDS011;2961;47.702;9.410;2023-11-19T05:35:22;7.90;;;5.47;;
5869;SDS011;2961;47.702;9.410;2023-11-19T05:37:48;5.57;;;4.90;;
5869;SDS011;2961;47.702;9.410;2023-11-19T05:40:15;6.57;;;4.40;;
5869;SDS011;2961;47.702;9.410;2023-11-19T05:42:42;4.53;;;3.70;;
5869;SDS011;2961;47.702;9.410;2023-11-19T05:45:10;5.83;;;3.60;;
5869;SDS011;2961;47.702;9.410;2023-11-19T05:47:39;5.80;;;3.63;;
5869;SDS011;2961;47.702;9.410;2023-11-19T05:50:06;3.40;;;3.07;;
5869;SDS011;2961;47.702;9.410;2023-11-19T05:52:35;4.73;;;3.80;;
5869;SDS011;2961;47.702;9.410;2023-11-19T05:55:02;7.40;;;3.90;;
5869;SDS011;2961;47.702;9.410;2023-11-19T05:57:34;3.70;;;3.40;;
5869;SDS011;2961;47.702;9.410;2023-11-19T06:00:01;6.70;;;3.67;;
5869;SDS011;2961;47.702;9.410;2023-11-19T06:02:28;5.37;;;2.97;;
5869;SDS011;2961;47.702;9.410;2023-11-19T06:04:55;3.43;;;3.13;;
5869;SDS011;2961;47.702;9.410;2023-11-19T06:07:22;4.67;;;3.97;;
5869;SDS011;2961;47.702;9.410;2023-11-19T06:09:50;3.53;;;3.23;;
5869;SDS011;2961;47.702;9.410;2023-11-19T06:12:17;3.23;;;3.03;;
5869;SDS011;2961;47.702;9.410;2023-11-19T06:14:43;4.03;;;3.67;;
5869;SDS011;2961;47.702;9.410;2023-11-19T06:17:10;3.50;;;2.80;;
5869;SDS011;2961;47.702;9.410;2023-11-19T06:19:37;3.10;;;2.90;;
5869;SDS011;2961;47.702;9.410;2023-11-19T06:22:04;3.50;;;3.30;;
5869;SDS011;2961;47.702;9.410;2023-11-19T06:24:31;9.80;;;3.93;;
5869;SDS011;2961;47.702;9.410;2023-11-19T06:26:59;6.77;;;3.43;;
5869;SDS011;2961;47.702;9.410;2023-11-19T06:29:26;4.47;;;3.90;;
5869;SDS011;2961;47.702;9.410;2023-11-19T06:31:53;5.33;;;4.87;;
5869;SDS011;2961;47.702;9.410;2023-11-19T06:34:20;5.17;;;4.67;;
5869;SDS011;2961;47.702;9.410;2023-11-19T06:36:47;4.83;;;3.37;;
5869;SDS011;2961;47.702;9.410;2023-11-19T06:39:13;3.77;;;3.47;;
5869;SDS011;2961;47.702;9.410;2023-11-19T06:41:44;3.13;;;2.63;;
5869;SDS011;2961;47.702;9.410;2023-11-19T06:44:12;2.50;;;2.30;;
5869;SDS011;2961;47.702;9.410;2023-11-19T06:46:39;5.80;;;3.03;;
5869;SDS011;2961;47.702;9.410;2023-11-19T06:49:06;2.87;;;2.67;;
5869;SDS011;2961;47.702;9.410;2023-11-19T06:51:33;3.57;;;2.60;;
5869;SDS011;2961;47.702;9.410;2023-11-19T06:54:00;6.10;;;2.73;;
5869;SDS011;2961;47.702;9.410;2023-11-19T06:56:27;2.83;;;2.63;;
5869;SDS011;2961;47.702;9.410;2023-11-19T06:58:54;2.87;;;2.10;;
5869;SDS011;2961;47.702;9.410;2023-11-19T07:01:22;3.40;;;2.67;;
5869;SDS011;2961;47.702;9.410;2023-11-19T07:03:49;2.37;;;2.20;;
5869;SDS011;2961;47.702;9.410;2023-11-19T07:06:16;2.10;;;2.00;;
5869;SDS011;2961;47.702;9.410;2023-11-19T07:08:43;2.70;;;2.50;;
5869;SDS011;2961;47.702;9.410;2023-11-19T07:11:10;2.83;;;2.37;;
5869;SDS011;2961;47.702;9.410;2023-11-19T07:13:39;2.90;;;2.67;;
5869;SDS011;2961;47.702;9.410;2023-11-19T07:16:07;2.63;;;2.53;;
5869;SDS011;2961;47.702;9.410;2023-11-19T07:18:37;2.30;;;2.20;;
5869;SDS011;2961;47.702;9.410;2023-11-19T07:21:04;3.47;;;2.73;;
5869;SDS011;2961;47.702;9.410;2023-11-19T07:23:32;2.50;;;2.07;;
5869;SDS011;2961;47.702;9.410;2023-11-19T07:25:59;3.20;;;2.30;;
5869;SDS011;2961;47.702;9.410;2023-11-19T07:28:26;3.10;;;2.27;;
5869;SDS011;2961;47.702;9.410;2023-11-19T07:30:53;2.03;;;1.93;;
5869;SDS011;2961;47.702;9.410;2023-11-19T07:33:21;3.00;;;1.80;;
5869;SDS011;2961;47.702;9.410;2023-11-19T07:35:50;2.80;;;2.53;;
5869;SDS011;2961;47.702;9.410;2023-11-19T07:38:17;2.40;;;2.30;;
5869;SDS011;2961;47.702;9.410;2023-11-19T07:40:44;2.30;;;1.87;;
5869;SDS011;2961;47.702;9.410;2023-11-19T07:43:12;3.30;;;2.00;;
5869;SDS011;2961;47.702;9.410;2023-11-19T07:45:39;2.70;;;1.67;;
5869;SDS011;2961;47.702;9.410;2023-11-19T07:48:08;1.90;;;1.80;;
5869;SDS011;2961;47.702;9.410;2023-11-19T07:50:36;2.10;;;1.60;;
5869;SDS011;2961;47.702;9.410;2023-11-19T07:53:04;2.20;;;2.00;;
5869;SDS011;2961;47.702;9.410;2023-11-19T07:55:30;2.57;;;1.97;;
5869;SDS011;2961;47.702;9.410;2023-11-19T07:57:57;1.53;;;1.43;;
5869;SDS011;2961;47.702;9.410;2023-11-19T08:00:24;1.60;;;1.30;;
5869;SDS011;2961;47.702;9.410;2023-11-19T08:02:51;5.63;;;2.10;;
5869;SDS011;2961;47.702;9.410;2023-11-19T08:05:18;1.60;;;1.60;;
5869;SDS011;2961;47.702;9.410;2023-11-19T08:07:45;2.20;;;2.10;;
5869;SDS011;2961;47.702;9.410;2023-11-19T08:10:13;2.00;;;1.73;;
5869;SDS011;2961;47.702;9.410;2023-11-19T08:12:40;1.60;;;1.50;;
5869;SDS011;2961;47.702;9.410;2023-11-19T08:15:07;1.57;;;1.10;;
5869;SDS011;2961;47.702;9.410;2023-11-19T08:17:34;1.37;;;1.37;;
5869;SDS011;2961;47.702;9.410;2023-11-19T08:20:01;1.70;;;1.60;;
5869;SDS011;2961;47.702;9.410;2023-11-19T08:22:29;1.80;;;1.67;;
5869;SDS011;2961;47.702;9.410;2023-11-19T08:24:56;1.93;;;1.83;;
5869;SDS011;2961;47.702;9.410;2023-11-19T08:27:25;1.90;;;1.80;;
5869;SDS011;2961;47.702;9.410;2023-11-19T08:29:53;1.77;;;1.70;;
5869;SDS011;2961;47.702;9.410;2023-11-19T08:32:20;2.67;;;2.47;;
5869;SDS011;2961;47.702;9.410;2023-11-19T08:34:47;2.10;;;2.00;;
5869;SDS011;2961;47.702;9.410;2023-11-19T08:37:14;1.93;;;1.73;;
5869;SDS011;2961;47.702;9.410;2023-11-19T08:39:43;2.33;;;2.27;;
5869;SDS011;2961;47.702;9.410;2023-11-19T08:42:09;1.70;;;1.70;;
5869;SDS011;2961;47.702;9.410;2023-11-19T08:44:37;6.20;;;1.90;;
5869;SDS011;2961;47.702;9.410;2023-11-19T08:47:05;2.53;;;1.60;;
5869;SDS011;2961;47.702;9.410;2023-11-19T08:49:32;2.00;;;1.90;;
5869;SDS011;2961;47.702;9.410;2023-11-19T08:51:59;1.80;;;1.70;;
5869;SDS011;2961;47.702;9.410;2023-11-19T08:54:26;2.53;;;2.43;;
5869;SDS011;2961;47.702;9.410;2023-11-19T08:56:52;2.50;;;2.30;;
5869;SDS011;2961;47.702;9.410;2023-11-19T08:59:19;4.03;;;2.60;;
5869;SDS011;2961;47.702;9.410;2023-11-19T09:01:48;2.33;;;2.23;;
5869;SDS011;2961;47.702;9.410;2023-11-19T09:04:15;2.33;;;2.23;;
5869;SDS011;2961;47.702;9.410;2023-11-19T09:06:41;4.20;;;3.30;;
5869;SDS011;2961;47.702;9.410;2023-11-19T09:09:09;6.83;;;3.03;;
5869;SDS011;2961;47.702;9.410;2023-11-19T09:11:35;3.53;;;2.60;;
5869;SDS011;2961;47.702;9.410;2023-11-19T09:14:03;3.80;;;3.50;;
5869;SDS011;2961;47.702;9.410;2023-11-19T09:16:30;3.20;;;3.00;;
5869;SDS011;2961;47.702;9.410;2023-11-19T09:18:58;2.90;;;2.70;;
5869;SDS011;2961;47.702;9.410;2023-11-19T09:21:27;2.10;;;2.00;;
5869;SDS011;2961;47.702;9.410;2023-11-19T09:23:54;2.07;;;2.07;;
5869;SDS011;2961;47.702;9.410;2023-11-19T09:26:21;2.30;;;1.70;;
5869;SDS011;2961;47.702;9.410;2023-11-19T09:28:48;2.63;;;1.70;;
5869;SDS011;2961;47.702;9.410;2023-11-19T09:31:15;4.87;;;1.77;;
5869;SDS011;2961;47.702;9.410;2023-11-19T09:33:42;2.83;;;2.63;;
5869;SDS011;2961;47.702;9.410;2023-11-19T09:36:12;8.73;;;2.17;;
5869;SDS011;2961;47.702;9.410;2023-11-19T09:38:39;4.63;;;3.40;;
5869;SDS011;2961;47.702;9.410;2023-11-19T09:41:06;2.17;;;2.07;;
5869;SDS011;2961;47.702;9.410;2023-11-19T09:43:34;1.67;;;1.57;;
5869;SDS011;2961;47.702;9.410;2023-11-19T09:46:04;1.83;;;1.67;;
5869;SDS011;2961;47.702;9.410;2023-11-19T09:48:32;2.17;;;2.07;;
5869;SDS011;2961;47.702;9.410;2023-11-19T09:51:02;2.47;;;1.13;;
5869;SDS011;2961;47.702;9.410;2023-11-19T09:53:31;2.70;;;1.43;;
5869;SDS011;2961;47.702;9.410;2023-11-19T09:55:59;1.17;;;1.10;;
5869;SDS011;2961;47.702;9.410;2023-11-19T09:58:27;1.40;;;1.30;;
5869;SDS011;2961;47.702;9.410;2023-11-19T10:00:54;1.70;;;1.60;;
5869;SDS011;2961;47.702;9.410;2023-11-19T10:03:23;2.17;;;2.07;;
5869;SDS011;2961;47.702;9.410;2023-11-19T10:05:51;1.77;;;1.50;;
5869;SDS011;2961;47.702;9.410;2023-11-19T10:08:19;4.57;;;4.17;;
5869;SDS011;2961;47.702;9.410;2023-11-19T10:10:47;3.10;;;2.00;;
5869;SDS011;2961;47.702;9.410;2023-11-19T10:13:14;2.03;;;1.93;;
5869;SDS011;2961;47.702;9.410;2023-11-19T10:15:41;2.30;;;2.20;;
5869;SDS011;2961;47.702;9.410;2023-11-19T10:18:09;2.10;;;2.00;;
5869;SDS011;2961;47.702;9.410;2023-11-19T10:20:36;1.73;;;1.73;;
5869;SDS011;2961;47.702;9.410;2023-11-19T10:23:03;1.37;;;1.37;;
5869;SDS011;2961;47.702;9.410;2023-11-19T10:25:30;1.70;;;1.60;;
5869;SDS011;2961;47.702;9.410;2023-11-19T10:27:59;4.30;;;1.20;;
5869;SDS011;2961;47.702;9.410;2023-11-19T10:30:27;0.70;;;0.70;;
5869;SDS011;2961;47.702;9.410;2023-11-19T10:33:04;1.20;;;1.20;;
5869;SDS011;2961;47.702;9.410;2023-11-19T10:35:32;6.10;;;1.70;;
5869;SDS011;2961;47.702;9.410;2023-11-19T10:37:59;1.10;;;1.10;;
5869;SDS011;2961;47.702;9.410;2023-11-19T10:43:17;1.10;;;1.10;;
5869;SDS011;2961;47.702;9.410;2023-11-19T10:45:44;2.63;;;1.20;;
5869;SDS011;2961;47.702;9.410;2023-11-19T10:48:11;1.70;;;1.00;;
5869;SDS011;2961;47.702;9.410;2023-11-19T10:50:39;1.53;;;1.43;;
5869;SDS011;2961;47.702;9.410;2023-11-19T10:53:07;1.83;;;1.73;;
5869;SDS011;2961;47.702;9.410;2023-11-19T10:55:35;3.73;;;1.20;;
5869;SDS011;2961;47.702;9.410;2023-11-19T10:58:04;4.23;;;1.63;;
5869;SDS011;2961;47.702;9.410;2023-11-19T11:00:43;1.37;;;1.20;;
5869;SDS011;2961;47.702;9.410;2023-11-19T11:03:11;1.70;;;1.60;;
5869;SDS011;2961;47.702;9.410;2023-11-19T11:05:42;2.50;;;1.53;;
5869;SDS011;2961;47.702;9.410;2023-11-19T11:08:12;1.50;;;1.50;;
5869;SDS011;2961;47.702;9.410;2023-11-19T11:10:42;1.45;;;1.35;;
5869;SDS011;2961;47.702;9.410;2023-11-19T11:13:10;1.13;;;1.03;;
5869;SDS011;2961;47.702;9.410;2023-11-19T11:15:40;2.03;;;1.93;;
5869;SDS011;2961;47.702;9.410;2023-11-19T11:18:08;5.40;;;1.70;;
5869;SDS011;2961;47.702;9.410;2023-11-19T11:20:35;4.47;;;2.97;;
5869;SDS011;2961;47.702;9.410;2023-11-19T11:23:09;4.40;;;2.80;;
5869;SDS011;2961;47.702;9.410;2023-11-19T11:26:06;4.37;;;1.73;;
5869;SDS011;2961;47.702;9.410;2023-11-19T11:28:46;7.30;;;3.10;;
5869;SDS011;2961;47.702;9.410;2023-11-19T11:31:26;2.07;;;1.97;;
5869;SDS011;2961;47.702;9.410;2023-11-19T11:34:09;2.60;;;2.27;;
5869;SDS011;2961;47.702;9.410;2023-11-19T11:37:10;2.10;;;1.90;;
5869;SDS011;2961;47.702;9.410;2023-11-19T11:39:43;2.20;;;1.90;;
5869;SDS011;2961;47.702;9.410;2023-11-19T11:42:31;1.40;;;1.40;;
5869;SDS011;2961;47.702;9.410;2023-11-19T11:44:59;4.47;;;2.13;;
5869;SDS011;2961;47.702;9.410;2023-11-19T11:47:34;2.13;;;1.70;;
5869;SDS011;2961;47.702;9.410;2023-11-19T11:50:36;4.47;;;2.00;;
5869;SDS011;2961;47.702;9.410;2023-11-19T11:53:17;2.43;;;1.33;;
5869;SDS011;2961;47.702;9.410;2023-11-19T11:55:54;2.20;;;1.07;;
5869;SDS011;2961;47.702;9.410;2023-11-19T11:58:30;1.53;;;1.43;;
5869;SDS011;2961;47.702;9.410;2023-11-19T12:00:59;2.00;;;1.00;;
5869;SDS011;2961;47.702;9.410;2023-11-19T12:03:32;1.07;;;0.83;;
5869;SDS011;2961;47.702;9.410;2023-11-19T12:05:59;1.20;;;1.10;;
5869;SDS011;2961;47.702;9.410;2023-11-19T12:08:27;0.70;;;0.70;;
5869;SDS011;2961;47.702;9.410;2023-11-19T12:10:56;1.13;;;1.00;;
5869;SDS011;2961;47.702;9.410;2023-11-19T12:13:25;1.13;;;0.90;;
5869;SDS011;2961;47.702;9.410;2023-11-19T12:16:09;1.10;;;1.10;;
5869;SDS011;2961;47.702;9.410;2023-11-19T12:18:39;2.37;;;0.73;;
5869;SDS011;2961;47.702;9.410;2023-11-19T12:21:07;0.70;;;0.70;;
5869;SDS011;2961;47.702;9.410;2023-11-19T12:23:35;0.70;;;0.70;;
5869;SDS011;2961;47.702;9.410;2023-11-19T12:26:20;1.47;;;0.70;;
5869;SDS011;2961;47.702;9.410;2023-11-19T12:29:00;3.33;;;1.03;;
5869;SDS011;2961;47.702;9.410;2023-11-19T12:31:28;0.80;;;0.80;;
5869;SDS011;2961;47.702;9.410;2023-11-19T12:33:57;2.60;;;1.00;;
5869;SDS011;2961;47.702;9.410;2023-11-19T12:36:25;1.53;;;1.27;;
5869;SDS011;2961;47.702;9.410;2023-11-19T12:38:52;0.87;;;0.73;;
5869;SDS011;2961;47.702;9.410;2023-11-19T12:41:18;0.97;;;0.80;;
5869;SDS011;2961;47.702;9.410;2023-11-19T12:43:48;1.43;;;0.90;;
5869;SDS011;2961;47.702;9.410;2023-11-19T12:46:18;2.07;;;0.87;;
5869;SDS011;2961;47.702;9.410;2023-11-19T12:48:46;0.60;;;0.60;;
5869;SDS011;2961;47.702;9.410;2023-11-19T12:51:14;8.33;;;1.00;;
5869;SDS011;2961;47.702;9.410;2023-11-19T12:53:48;1.03;;;0.93;;
5869;SDS011;2961;47.702;9.410;2023-11-19T12:56:15;0.70;;;0.70;;
5869;SDS011;2961;47.702;9.410;2023-11-19T12:58:42;0.73;;;0.73;;
5869;SDS011;2961;47.702;9.410;2023-11-19T13:01:09;0.80;;;0.80;;
5869;SDS011;2961;47.702;9.410;2023-11-19T13:03:41;3.40;;;1.00;;
5869;SDS011;2961;47.702;9.410;2023-11-19T13:06:09;2.27;;;2.07;;
5869;SDS011;2961;47.702;9.410;2023-11-19T13:08:38;1.37;;;0.80;;
5869;SDS011;2961;47.702;9.410;2023-11-19T13:11:06;2.30;;;0.97;;
5869;SDS011;2961;47.702;9.410;2023-11-19T13:16:19;0.90;;;0.90;;
5869;SDS011;2961;47.702;9.410;2023-11-19T13:18:47;2.00;;;1.03;;
5869;SDS011;2961;47.702;9.410;2023-11-19T13:21:13;4.23;;;1.03;;
5869;SDS011;2961;47.702;9.410;2023-11-19T13:23:42;0.70;;;0.70;;
5869;SDS011;2961;47.702;9.410;2023-11-19T13:26:09;4.63;;;1.10;;
5869;SDS011;2961;47.702;9.410;2023-11-19T13:28:36;1.90;;;0.80;;
5869;SDS011;2961;47.702;9.410;2023-11-19T13:31:03;1.10;;;1.10;;
5869;SDS011;2961;47.702;9.410;2023-11-19T13:33:30;1.20;;;1.00;;
5869;SDS011;2961;47.702;9.410;2023-11-19T13:35:57;1.37;;;1.10;;
5869;SDS011;2961;47.702;9.410;2023-11-19T13:38:24;0.87;;;0.80;;
5869;SDS011;2961;47.702;9.410;2023-11-19T13:40:53;1.80;;;0.73;;
5869;SDS011;2961;47.702;9.410;2023-11-19T13:43:19;1.00;;;0.90;;
5869;SDS011;2961;47.702;9.410;2023-11-19T13:45:46;1.03;;;1.03;;
5869;SDS011;2961;47.702;9.410;2023-11-19T13:48:13;0.70;;;0.70;;
5869;SDS011;2961;47.702;9.410;2023-11-19T13:50:40;0.87;;;0.70;;
5869;SDS011;2961;47.702;9.410;2023-11-19T13:53:07;0.70;;;0.70;;
5869;SDS011;2961;47.702;9.410;2023-11-19T13:55:34;0.80;;;0.80;;
5869;SDS011;2961;47.702;9.410;2023-11-19T13:58:02;0.60;;;0.60;;
5869;SDS011;2961;47.702;9.410;2023-11-19T14:00:29;4.10;;;0.80;;
5869;SDS011;2961;47.702;9.410;2023-11-19T14:02:56;1.73;;;1.63;;
5869;SDS011;2961;47.702;9.410;2023-11-19T14:05:22;1.47;;;1.37;;
5869;SDS011;2961;47.702;9.410;2023-11-19T14:07:49;0.97;;;0.93;;
5869;SDS011;2961;47.702;9.410;2023-11-19T14:10:16;1.80;;;1.40;;
5869;SDS011;2961;47.702;9.410;2023-11-19T14:12:43;0.90;;;0.90;;
5869;SDS011;2961;47.702;9.410;2023-11-19T14:15:12;0.87;;;0.80;;
5869;SDS011;2961;47.702;9.410;2023-11-19T14:17:39;0.90;;;0.90;;
5869;SDS011;2961;47.702;9.410;2023-11-19T14:20:06;5.33;;;1.00;;
5869;SDS011;2961;47.702;9.410;2023-11-19T14:22:38;1.30;;;1.30;;
5869;SDS011;2961;47.702;9.410;2023-11-19T14:25:05;1.10;;;1.10;;
5869;SDS011;2961;47.702;9.410;2023-11-19T14:27:34;4.83;;;3.30;;
5869;SDS011;2961;47.702;9.410;2023-11-19T14:30:02;3.77;;;2.80;;
5869;SDS011;2961;47.702;9.410;2023-11-19T14:32:31;2.50;;;2.30;;
5869;SDS011;2961;47.702;9.410;2023-11-19T14:34:58;1.73;;;1.50;;
5869;SDS011;2961;47.702;9.410;2023-11-19T14:37:25;2.00;;;1.90;;
5869;SDS011;2961;47.702;9.410;2023-11-19T14:39:52;3.40;;;2.00;;
5869;SDS011;2961;47.702;9.410;2023-11-19T14:42:19;2.67;;;2.50;;
5869;SDS011;2961;47.702;9.410;2023-11-19T14:44:45;2.03;;;1.93;;
5869;SDS011;2961;47.702;9.410;2023-11-19T14:47:12;2.43;;;2.23;;
5869;SDS011;2961;47.702;9.410;2023-11-19T14:49:41;3.23;;;2.97;;
5869;SDS011;2961;47.702;9.410;2023-11-19T14:52:07;3.27;;;1.40;;
5869;SDS011;2961;47.702;9.410;2023-11-19T14:54:35;0.93;;;0.90;;
5869;SDS011;2961;47.702;9.410;2023-11-19T14:57:02;0.70;;;0.70;;
5869;SDS011;2961;47.702;9.410;2023-11-19T14:59:29;1.17;;;1.07;;
5869;SDS011;2961;47.702;9.410;2023-11-19T15:01:56;0.90;;;0.83;;
5869;SDS011;2961;47.702;9.410;2023-11-19T15:04:25;1.77;;;1.63;;
5869;SDS011;2961;47.702;9.410;2023-11-19T15:06:53;1.70;;;1.07;;
5869;SDS011;2961;47.702;9.410;2023-11-19T15:09:22;0.80;;;0.80;;
5869;SDS011;2961;47.702;9.410;2023-11-19T15:11:49;1.53;;;1.43;;
5869;SDS011;2961;47.702;9.410;2023-11-19T15:14:15;1.07;;;0.97;;
5869;SDS011;2961;47.702;9.410;2023-11-19T15:16:44;0.97;;;0.97;;
5869;SDS011;2961;47.702;9.410;2023-11-19T15:19:12;0.93;;;0.93;;
5869;SDS011;2961;47.702;9.410;2023-11-19T15:21:39;1.60;;;1.10;;
5869;SDS011;2961;47.702;9.410;2023-11-19T15:24:08;0.80;;;0.80;;
5869;SDS011;2961;47.702;9.410;2023-11-19T15:26:36;0.70;;;0.70;;
5869;SDS011;2961;47.702;9.410;2023-11-19T15:29:03;0.83;;;0.83;;
5869;SDS011;2961;47.702;9.410;2023-11-19T15:31:31;1.40;;;1.10;;